sensor_id;sensor_type;location;lat;lon;timestamp;P1;durP1;ratioP1;P2;durP2;ratioP2
55222;SDS011;41090;48.632;12.428;2023-04-08T00:01:19;16.57;;;14.73;;
55222;SDS011;41090;48.632;12.428;2023-04-08T00:03:44;15.13;;;13.53;;
55222;SDS011;41090;48.632;12.428;2023-04-08T00:06:10;15.57;;;13.90;;
55222;SDS011;41090;48.632;12.428;2023-04-08T00:11:05;16.70;;;14.43;;
55222;SDS011;41090;48.632;12.428;2023-04-08T00:13:31;14.07;;;12.67;;
55222;SDS011;41090;48.632;12.428;2023-04-08T00:15:58;15.80;;;13.47;;
55222;SDS011;41090;48.632;12.428;2023-04-08T00:18:23;16.17;;;14.30;;
55222;SDS011;41090;48.632;12.428;2023-04-08T00:20:48;14.83;;;13.33;;
55222;SDS011;41090;48.632;12.428;2023-04-08T00:23:14;14.80;;;13.20;;
55222;SDS011;41090;48.632;12.428;2023-04-08T00:25:39;14.60;;;13.00;;
55222;SDS011;41090;48.632;12.428;2023-04-08T00:28:04;15.23;;;13.63;;
55222;SDS011;41090;48.632;12.428;2023-04-08T00:30:30;14.87;;;12.73;;
55222;SDS011;41090;48.632;12.428;2023-04-08T00:32:55;13.93;;;12.43;;
55222;SDS011;41090;48.632;12.428;2023-04-08T00:35:20;13.77;;;12.33;;
55222;SDS011;41090;48.632;12.428;2023-04-08T00:37:45;13.97;;;12.57;;
55222;SDS011;41090;48.632;12.428;2023-04-08T00:40:12;13.60;;;12.20;;
55222;SDS011;41090;48.632;12.428;2023-04-08T00:42:37;16.20;;;14.57;;
55222;SDS011;41090;48.632;12.428;2023-04-08T00:45:02;15.03;;;13.43;;
55222;SDS011;41090;48.632;12.428;2023-04-08T00:47:27;18.40;;;14.83;;
55222;SDS011;41090;48.632;12.428;2023-04-08T00:49:53;16.03;;;14.33;;
55222;SDS011;41090;48.632;12.428;2023-04-08T00:52:18;15.53;;;13.93;;
55222;SDS011;41090;48.632;12.428;2023-04-08T00:54:43;16.07;;;13.73;;
55222;SDS011;41090;48.632;12.428;2023-04-08T00:57:08;15.17;;;13.57;;
55222;SDS011;41090;48.632;12.428;2023-04-08T00:59:34;15.33;;;13.37;;
55222;SDS011;41090;48.632;12.428;2023-04-08T01:07:12;15.70;;;13.47;;
55222;SDS011;41090;48.632;12.428;2023-04-08T01:09:39;14.53;;;13.00;;
55222;SDS011;41090;48.632;12.428;2023-04-08T01:12:08;16.17;;;13.60;;
55222;SDS011;41090;48.632;12.428;2023-04-08T01:14:38;13.77;;;11.97;;
55222;SDS011;41090;48.632;12.428;2023-04-08T01:17:06;13.67;;;12.27;;
55222;SDS011;41090;48.632;12.428;2023-04-08T01:19:36;14.20;;;12.67;;
55222;SDS011;41090;48.632;12.428;2023-04-08T01:22:04;14.10;;;12.50;;
55222;SDS011;41090;48.632;12.428;2023-04-08T01:24:32;15.20;;;12.97;;
55222;SDS011;41090;48.632;12.428;2023-04-08T01:27:00;14.83;;;13.03;;
55222;SDS011;41090;48.632;12.428;2023-04-08T01:29:27;14.93;;;13.33;;
55222;SDS011;41090;48.632;12.428;2023-04-08T01:31:53;15.97;;;13.63;;
55222;SDS011;41090;48.632;12.428;2023-04-08T01:34:19;15.97;;;13.30;;
55222;SDS011;41090;48.632;12.428;2023-04-08T01:36:45;14.90;;;13.23;;
55222;SDS011;41090;48.632;12.428;2023-04-08T01:39:11;15.07;;;13.43;;
55222;SDS011;41090;48.632;12.428;2023-04-08T01:41:37;14.73;;;13.23;;
55222;SDS011;41090;48.632;12.428;2023-04-08T01:44:03;15.33;;;13.73;;
55222;SDS011;41090;48.632;12.428;2023-04-08T01:46:28;16.80;;;14.47;;
55222;SDS011;41090;48.632;12.428;2023-04-08T01:48:54;18.97;;;14.53;;
55222;SDS011;41090;48.632;12.428;2023-04-08T01:51:20;15.70;;;14.13;;
55222;SDS011;41090;48.632;12.428;2023-04-08T01:53:46;16.60;;;14.43;;
55222;SDS011;41090;48.632;12.428;2023-04-08T01:56:11;23.00;;;15.67;;
55222;SDS011;41090;48.632;12.428;2023-04-08T01:58:41;16.10;;;14.40;;
55222;SDS011;41090;48.632;12.428;2023-04-08T02:01:13;29.03;;;18.20;;
55222;SDS011;41090;48.632;12.428;2023-04-08T02:03:42;19.70;;;16.00;;
55222;SDS011;41090;48.632;12.428;2023-04-08T02:06:08;17.90;;;15.17;;
55222;SDS011;41090;48.632;12.428;2023-04-08T02:08:33;15.73;;;14.13;;
55222;SDS011;41090;48.632;12.428;2023-04-08T02:11:00;15.30;;;13.80;;
55222;SDS011;41090;48.632;12.428;2023-04-08T02:13:25;15.57;;;13.93;;
55222;SDS011;41090;48.632;12.428;2023-04-08T02:15:53;17.13;;;14.67;;
55222;SDS011;41090;48.632;12.428;2023-04-08T02:18:21;16.97;;;14.07;;
55222;SDS011;41090;48.632;12.428;2023-04-08T02:23:32;16.03;;;14.40;;
55222;SDS011;41090;48.632;12.428;2023-04-08T02:25:59;16.53;;;14.30;;
55222;SDS011;41090;48.632;12.428;2023-04-08T02:28:26;16.10;;;13.70;;
55222;SDS011;41090;48.632;12.428;2023-04-08T02:30:55;16.20;;;14.53;;
55222;SDS011;41090;48.632;12.428;2023-04-08T02:33:21;15.37;;;13.77;;
55222;SDS011;41090;48.632;12.428;2023-04-08T02:35:47;15.47;;;13.83;;
55222;SDS011;41090;48.632;12.428;2023-04-08T02:38:14;14.23;;;12.83;;
55222;SDS011;41090;48.632;12.428;2023-04-08T02:40:40;16.27;;;14.17;;
55222;SDS011;41090;48.632;12.428;2023-04-08T02:43:05;14.53;;;12.93;;
55222;SDS011;41090;48.632;12.428;2023-04-08T02:45:34;14.77;;;13.17;;
55222;SDS011;41090;48.632;12.428;2023-04-08T02:48:01;14.03;;;12.57;;
55222;SDS011;41090;48.632;12.428;2023-04-08T02:50:26;13.53;;;12.13;;
55222;SDS011;41090;48.632;12.428;2023-04-08T02:52:55;14.33;;;12.77;;
55222;SDS011;41090;48.632;12.428;2023-04-08T02:55:21;16.00;;;13.37;;
55222;SDS011;41090;48.632;12.428;2023-04-08T02:57:47;13.93;;;12.50;;
55222;SDS011;41090;48.632;12.428;2023-04-08T03:00:13;16.13;;;13.00;;
55222;SDS011;41090;48.632;12.428;2023-04-08T03:02:38;14.63;;;12.87;;
55222;SDS011;41090;48.632;12.428;2023-04-08T03:05:03;15.10;;;13.07;;
55222;SDS011;41090;48.632;12.428;2023-04-08T03:07:29;15.37;;;12.30;;
55222;SDS011;41090;48.632;12.428;2023-04-08T03:09:55;14.20;;;12.70;;
55222;SDS011;41090;48.632;12.428;2023-04-08T03:12:20;13.80;;;12.40;;
55222;SDS011;41090;48.632;12.428;2023-04-08T03:14:46;14.50;;;13.00;;
55222;SDS011;41090;48.632;12.428;2023-04-08T03:17:11;16.37;;;12.63;;
55222;SDS011;41090;48.632;12.428;2023-04-08T03:19:36;14.97;;;12.77;;
55222;SDS011;41090;48.632;12.428;2023-04-08T03:22:01;15.77;;;12.93;;
55222;SDS011;41090;48.632;12.428;2023-04-08T03:24:27;13.93;;;12.43;;
55222;SDS011;41090;48.632;12.428;2023-04-08T03:26:52;14.10;;;12.60;;
55222;SDS011;41090;48.632;12.428;2023-04-08T03:29:17;14.57;;;12.33;;
55222;SDS011;41090;48.632;12.428;2023-04-08T03:31:42;13.97;;;12.47;;
55222;SDS011;41090;48.632;12.428;2023-04-08T03:34:08;15.60;;;12.50;;
55222;SDS011;41090;48.632;12.428;2023-04-08T03:36:33;16.40;;;12.77;;
55222;SDS011;41090;48.632;12.428;2023-04-08T03:38:58;14.17;;;12.33;;
55222;SDS011;41090;48.632;12.428;2023-04-08T03:41:23;15.13;;;12.83;;
55222;SDS011;41090;48.632;12.428;2023-04-08T03:43:49;16.43;;;12.20;;
55222;SDS011;41090;48.632;12.428;2023-04-08T03:46:14;14.97;;;13.17;;
55222;SDS011;41090;48.632;12.428;2023-04-08T03:48:39;14.03;;;12.53;;
55222;SDS011;41090;48.632;12.428;2023-04-08T03:51:05;14.03;;;12.53;;
55222;SDS011;41090;48.632;12.428;2023-04-08T03:53:30;15.80;;;12.87;;
55222;SDS011;41090;48.632;12.428;2023-04-08T03:55:55;13.47;;;12.07;;
55222;SDS011;41090;48.632;12.428;2023-04-08T03:58:29;14.47;;;12.90;;
55222;SDS011;41090;48.632;12.428;2023-04-08T04:00:54;15.27;;;12.80;;
55222;SDS011;41090;48.632;12.428;2023-04-08T04:03:19;14.47;;;12.27;;
55222;SDS011;41090;48.632;12.428;2023-04-08T04:05:45;15.67;;;13.77;;
55222;SDS011;41090;48.632;12.428;2023-04-08T04:08:10;14.37;;;12.87;;
55222;SDS011;41090;48.632;12.428;2023-04-08T04:10:36;15.30;;;12.67;;
55222;SDS011;41090;48.632;12.428;2023-04-08T04:13:01;15.00;;;12.53;;
55222;SDS011;41090;48.632;12.428;2023-04-08T04:15:26;14.87;;;12.83;;
55222;SDS011;41090;48.632;12.428;2023-04-08T04:17:51;14.73;;;12.93;;
55222;SDS011;41090;48.632;12.428;2023-04-08T04:20:17;14.83;;;13.20;;
55222;SDS011;41090;48.632;12.428;2023-04-08T04:22:42;15.03;;;12.97;;
55222;SDS011;41090;48.632;12.428;2023-04-08T04:25:08;14.27;;;12.73;;
55222;SDS011;41090;48.632;12.428;2023-04-08T04:27:33;14.07;;;12.57;;
55222;SDS011;41090;48.632;12.428;2023-04-08T04:29:59;15.37;;;12.80;;
55222;SDS011;41090;48.632;12.428;2023-04-08T04:32:26;13.73;;;12.27;;
55222;SDS011;41090;48.632;12.428;2023-04-08T04:34:51;15.07;;;13.53;;
55222;SDS011;41090;48.632;12.428;2023-04-08T04:37:16;14.13;;;12.33;;
55222;SDS011;41090;48.632;12.428;2023-04-08T04:39:42;14.03;;;12.53;;
55222;SDS011;41090;48.632;12.428;2023-04-08T04:42:08;13.00;;;11.70;;
55222;SDS011;41090;48.632;12.428;2023-04-08T04:44:33;14.17;;;12.67;;
55222;SDS011;41090;48.632;12.428;2023-04-08T04:46:59;14.23;;;12.73;;
55222;SDS011;41090;48.632;12.428;2023-04-08T04:49:24;14.20;;;12.70;;
55222;SDS011;41090;48.632;12.428;2023-04-08T04:51:49;14.77;;;12.80;;
55222;SDS011;41090;48.632;12.428;2023-04-08T04:54:15;15.80;;;12.73;;
55222;SDS011;41090;48.632;12.428;2023-04-08T04:56:41;15.07;;;12.90;;
55222;SDS011;41090;48.632;12.428;2023-04-08T04:59:06;15.70;;;12.83;;
55222;SDS011;41090;48.632;12.428;2023-04-08T05:01:34;16.40;;;13.60;;
55222;SDS011;41090;48.632;12.428;2023-04-08T05:03:59;14.87;;;12.53;;
55222;SDS011;41090;48.632;12.428;2023-04-08T05:06:25;14.87;;;12.67;;
55222;SDS011;41090;48.632;12.428;2023-04-08T05:08:51;15.40;;;12.90;;
55222;SDS011;41090;48.632;12.428;2023-04-08T05:11:16;13.67;;;12.20;;
55222;SDS011;41090;48.632;12.428;2023-04-08T05:13:45;14.70;;;12.70;;
55222;SDS011;41090;48.632;12.428;2023-04-08T05:16:11;14.47;;;12.80;;
55222;SDS011;41090;48.632;12.428;2023-04-08T05:18:36;16.77;;;12.27;;
55222;SDS011;41090;48.632;12.428;2023-04-08T05:21:01;14.30;;;12.50;;
55222;SDS011;41090;48.632;12.428;2023-04-08T05:23:27;15.63;;;12.97;;
55222;SDS011;41090;48.632;12.428;2023-04-08T05:25:52;14.13;;;12.63;;
55222;SDS011;41090;48.632;12.428;2023-04-08T05:28:17;14.87;;;12.90;;
55222;SDS011;41090;48.632;12.428;2023-04-08T05:30:47;15.37;;;12.53;;
55222;SDS011;41090;48.632;12.428;2023-04-08T05:33:20;15.10;;;12.43;;
55222;SDS011;41090;48.632;12.428;2023-04-08T05:35:45;13.77;;;12.37;;
55222;SDS011;41090;48.632;12.428;2023-04-08T05:38:11;14.23;;;12.47;;
55222;SDS011;41090;48.632;12.428;2023-04-08T05:40:36;14.63;;;13.03;;
55222;SDS011;41090;48.632;12.428;2023-04-08T05:43:01;14.87;;;12.83;;
55222;SDS011;41090;48.632;12.428;2023-04-08T05:45:27;13.33;;;11.90;;
55222;SDS011;41090;48.632;12.428;2023-04-08T05:47:52;14.53;;;12.50;;
55222;SDS011;41090;48.632;12.428;2023-04-08T05:50:17;13.07;;;11.77;;
55222;SDS011;41090;48.632;12.428;2023-04-08T05:52:43;15.20;;;12.20;;
55222;SDS011;41090;48.632;12.428;2023-04-08T05:55:12;13.80;;;12.40;;
55222;SDS011;41090;48.632;12.428;2023-04-08T05:57:39;15.40;;;12.13;;
55222;SDS011;41090;48.632;12.428;2023-04-08T06:00:05;13.73;;;11.97;;
55222;SDS011;41090;48.632;12.428;2023-04-08T06:02:31;13.83;;;12.43;;
55222;SDS011;41090;48.632;12.428;2023-04-08T06:04:56;15.20;;;12.13;;
55222;SDS011;41090;48.632;12.428;2023-04-08T06:07:21;12.97;;;11.67;;
55222;SDS011;41090;48.632;12.428;2023-04-08T06:09:46;13.33;;;11.90;;
55222;SDS011;41090;48.632;12.428;2023-04-08T06:12:11;13.47;;;12.07;;
55222;SDS011;41090;48.632;12.428;2023-04-08T06:14:37;13.43;;;12.03;;
55222;SDS011;41090;48.632;12.428;2023-04-08T06:17:02;14.67;;;12.53;;
55222;SDS011;41090;48.632;12.428;2023-04-08T06:19:28;14.63;;;12.73;;
55222;SDS011;41090;48.632;12.428;2023-04-08T06:21:53;14.60;;;13.10;;
55222;SDS011;41090;48.632;12.428;2023-04-08T06:24:22;14.40;;;12.90;;
55222;SDS011;41090;48.632;12.428;2023-04-08T06:26:48;14.63;;;13.03;;
55222;SDS011;41090;48.632;12.428;2023-04-08T06:29:13;16.37;;;13.03;;
55222;SDS011;41090;48.632;12.428;2023-04-08T06:31:38;16.27;;;12.63;;
55222;SDS011;41090;48.632;12.428;2023-04-08T06:34:03;14.43;;;12.93;;
55222;SDS011;41090;48.632;12.428;2023-04-08T06:36:29;13.93;;;12.17;;
55222;SDS011;41090;48.632;12.428;2023-04-08T06:38:54;14.20;;;12.70;;
55222;SDS011;41090;48.632;12.428;2023-04-08T06:41:19;13.87;;;12.47;;
55222;SDS011;41090;48.632;12.428;2023-04-08T06:43:49;14.10;;;12.10;;
55222;SDS011;41090;48.632;12.428;2023-04-08T06:46:14;23.63;;;16.13;;
55222;SDS011;41090;48.632;12.428;2023-04-08T06:48:40;26.50;;;19.47;;
55222;SDS011;41090;48.632;12.428;2023-04-08T06:51:05;22.43;;;17.13;;
55222;SDS011;41090;48.632;12.428;2023-04-08T06:53:31;16.87;;;14.17;;
55222;SDS011;41090;48.632;12.428;2023-04-08T06:55:57;15.10;;;13.50;;
55222;SDS011;41090;48.632;12.428;2023-04-08T06:58:22;18.57;;;14.37;;
55222;SDS011;41090;48.632;12.428;2023-04-08T07:00:48;15.47;;;13.60;;
55222;SDS011;41090;48.632;12.428;2023-04-08T07:05:41;14.20;;;11.73;;
55222;SDS011;41090;48.632;12.428;2023-04-08T07:08:07;14.60;;;13.10;;
55222;SDS011;41090;48.632;12.428;2023-04-08T07:10:35;15.43;;;12.33;;
55222;SDS011;41090;48.632;12.428;2023-04-08T07:15:33;15.27;;;13.67;;
55222;SDS011;41090;48.632;12.428;2023-04-08T07:17:58;17.73;;;14.80;;
55222;SDS011;41090;48.632;12.428;2023-04-08T07:20:24;17.43;;;13.10;;
55222;SDS011;41090;48.632;12.428;2023-04-08T07:22:50;13.10;;;11.73;;
55222;SDS011;41090;48.632;12.428;2023-04-08T07:25:15;13.30;;;11.70;;
55222;SDS011;41090;48.632;12.428;2023-04-08T07:27:41;13.27;;;11.57;;
55222;SDS011;41090;48.632;12.428;2023-04-08T07:30:06;12.23;;;11.03;;
55222;SDS011;41090;48.632;12.428;2023-04-08T07:32:32;13.63;;;12.23;;
55222;SDS011;41090;48.632;12.428;2023-04-08T07:34:57;15.37;;;13.53;;
55222;SDS011;41090;48.632;12.428;2023-04-08T07:37:22;13.97;;;12.57;;
55222;SDS011;41090;48.632;12.428;2023-04-08T07:39:48;14.50;;;13.00;;
55222;SDS011;41090;48.632;12.428;2023-04-08T07:42:20;18.80;;;17.00;;
55222;SDS011;41090;48.632;12.428;2023-04-08T07:44:45;14.90;;;13.40;;
55222;SDS011;41090;48.632;12.428;2023-04-08T07:47:11;14.93;;;13.33;;
55222;SDS011;41090;48.632;12.428;2023-04-08T07:49:38;13.97;;;12.33;;
55222;SDS011;41090;48.632;12.428;2023-04-08T07:52:04;14.57;;;13.07;;
55222;SDS011;41090;48.632;12.428;2023-04-08T07:54:30;14.03;;;12.63;;
55222;SDS011;41090;48.632;12.428;2023-04-08T07:56:55;14.13;;;12.70;;
55222;SDS011;41090;48.632;12.428;2023-04-08T07:59:21;14.87;;;12.87;;
55222;SDS011;41090;48.632;12.428;2023-04-08T08:01:46;13.20;;;11.90;;
55222;SDS011;41090;48.632;12.428;2023-04-08T08:04:11;13.90;;;12.50;;
55222;SDS011;41090;48.632;12.428;2023-04-08T08:06:37;13.10;;;11.80;;
55222;SDS011;41090;48.632;12.428;2023-04-08T08:09:03;13.23;;;11.93;;
55222;SDS011;41090;48.632;12.428;2023-04-08T08:11:29;12.73;;;11.43;;
55222;SDS011;41090;48.632;12.428;2023-04-08T08:14:00;10.00;;;9.00;;
55222;SDS011;41090;48.632;12.428;2023-04-08T08:16:29;8.77;;;7.97;;
55222;SDS011;41090;48.632;12.428;2023-04-08T08:18:54;8.20;;;7.50;;
55222;SDS011;41090;48.632;12.428;2023-04-08T08:21:20;7.53;;;6.83;;
55222;SDS011;41090;48.632;12.428;2023-04-08T08:23:45;9.53;;;8.53;;
55222;SDS011;41090;48.632;12.428;2023-04-08T08:26:10;9.43;;;8.53;;
55222;SDS011;41090;48.632;12.428;2023-04-08T08:28:36;10.57;;;9.47;;
55222;SDS011;41090;48.632;12.428;2023-04-08T08:31:02;9.03;;;8.13;;
55222;SDS011;41090;48.632;12.428;2023-04-08T08:33:27;8.37;;;7.67;;
55222;SDS011;41090;48.632;12.428;2023-04-08T08:35:53;8.80;;;8.00;;
55222;SDS011;41090;48.632;12.428;2023-04-08T08:38:18;8.30;;;7.57;;
55222;SDS011;41090;48.632;12.428;2023-04-08T08:40:43;8.57;;;7.77;;
55222;SDS011;41090;48.632;12.428;2023-04-08T08:43:11;8.90;;;8.10;;
55222;SDS011;41090;48.632;12.428;2023-04-08T08:45:39;9.10;;;8.30;;
55222;SDS011;41090;48.632;12.428;2023-04-08T08:48:06;8.73;;;7.93;;
55222;SDS011;41090;48.632;12.428;2023-04-08T08:50:32;9.43;;;8.53;;
55222;SDS011;41090;48.632;12.428;2023-04-08T08:52:58;9.77;;;8.77;;
55222;SDS011;41090;48.632;12.428;2023-04-08T08:55:23;9.10;;;8.30;;
55222;SDS011;41090;48.632;12.428;2023-04-08T08:57:51;9.60;;;8.70;;
55222;SDS011;41090;48.632;12.428;2023-04-08T09:00:16;9.40;;;8.47;;
55222;SDS011;41090;48.632;12.428;2023-04-08T09:02:42;9.07;;;8.17;;
55222;SDS011;41090;48.632;12.428;2023-04-08T09:05:09;9.43;;;8.57;;
55222;SDS011;41090;48.632;12.428;2023-04-08T09:07:35;10.70;;;9.70;;
55222;SDS011;41090;48.632;12.428;2023-04-08T09:10:00;9.80;;;8.90;;
55222;SDS011;41090;48.632;12.428;2023-04-08T09:12:26;10.07;;;9.10;;
55222;SDS011;41090;48.632;12.428;2023-04-08T09:15:08;9.73;;;8.83;;
55222;SDS011;41090;48.632;12.428;2023-04-08T09:17:37;10.33;;;9.33;;
55222;SDS011;41090;48.632;12.428;2023-04-08T09:20:09;9.80;;;8.93;;
55222;SDS011;41090;48.632;12.428;2023-04-08T09:25:28;10.40;;;9.40;;
55222;SDS011;41090;48.632;12.428;2023-04-08T09:27:53;10.50;;;9.53;;
55222;SDS011;41090;48.632;12.428;2023-04-08T09:30:21;10.70;;;9.70;;
55222;SDS011;41090;48.632;12.428;2023-04-08T09:32:48;10.70;;;9.73;;
55222;SDS011;41090;48.632;12.428;2023-04-08T09:35:13;11.53;;;10.43;;
55222;SDS011;41090;48.632;12.428;2023-04-08T09:37:51;11.87;;;10.77;;
55222;SDS011;41090;48.632;12.428;2023-04-08T09:40:19;12.07;;;10.97;;
55222;SDS011;41090;48.632;12.428;2023-04-08T09:42:48;11.13;;;10.13;;
55222;SDS011;41090;48.632;12.428;2023-04-08T09:45:19;11.63;;;10.53;;
55222;SDS011;41090;48.632;12.428;2023-04-08T09:47:51;12.00;;;10.80;;
55222;SDS011;41090;48.632;12.428;2023-04-08T09:50:21;14.70;;;13.30;;
55222;SDS011;41090;48.632;12.428;2023-04-08T09:52:48;11.70;;;10.60;;
55222;SDS011;41090;48.632;12.428;2023-04-08T09:55:20;12.73;;;11.53;;
55222;SDS011;41090;48.632;12.428;2023-04-08T09:57:54;12.33;;;11.17;;
55222;SDS011;41090;48.632;12.428;2023-04-08T10:00:25;12.23;;;11.13;;
55222;SDS011;41090;48.632;12.428;2023-04-08T10:05:35;13.10;;;11.80;;
55222;SDS011;41090;48.632;12.428;2023-04-08T10:08:01;13.37;;;12.10;;
55222;SDS011;41090;48.632;12.428;2023-04-08T10:12:56;13.57;;;12.27;;
55222;SDS011;41090;48.632;12.428;2023-04-08T10:15:28;13.90;;;12.60;;
55222;SDS011;41090;48.632;12.428;2023-04-08T10:18:39;14.00;;;12.60;;
55222;SDS011;41090;48.632;12.428;2023-04-08T10:20:43;14.17;;;12.67;;
55222;SDS011;41090;48.632;12.428;2023-04-08T10:23:12;15.23;;;13.63;;
55222;SDS011;41090;48.632;12.428;2023-04-08T10:25:47;13.60;;;12.30;;
55222;SDS011;41090;48.632;12.428;2023-04-08T10:30:50;14.73;;;13.23;;
55222;SDS011;41090;48.632;12.428;2023-04-08T10:33:17;15.07;;;13.53;;
55222;SDS011;41090;48.632;12.428;2023-04-08T10:35:46;13.40;;;12.10;;
55222;SDS011;41090;48.632;12.428;2023-04-08T10:38:12;14.10;;;12.03;;
55222;SDS011;41090;48.632;12.428;2023-04-08T10:40:38;14.30;;;12.83;;
55222;SDS011;41090;48.632;12.428;2023-04-08T10:43:05;14.23;;;12.93;;
55222;SDS011;41090;48.632;12.428;2023-04-08T10:45:31;13.33;;;12.13;;
55222;SDS011;41090;48.632;12.428;2023-04-08T10:47:56;14.70;;;13.40;;
55222;SDS011;41090;48.632;12.428;2023-04-08T10:50:21;12.77;;;11.57;;
55222;SDS011;41090;48.632;12.428;2023-04-08T10:52:50;13.53;;;12.20;;
55222;SDS011;41090;48.632;12.428;2023-04-08T10:55:19;14.60;;;13.10;;
55222;SDS011;41090;48.632;12.428;2023-04-08T10:57:47;14.00;;;12.60;;
55222;SDS011;41090;48.632;12.428;2023-04-08T11:00:16;13.30;;;12.00;;
55222;SDS011;41090;48.632;12.428;2023-04-08T11:02:42;16.83;;;15.03;;
55222;SDS011;41090;48.632;12.428;2023-04-08T11:05:08;15.77;;;14.13;;
55222;SDS011;41090;48.632;12.428;2023-04-08T11:07:38;16.30;;;14.60;;
55222;SDS011;41090;48.632;12.428;2023-04-08T11:10:03;15.67;;;14.07;;
55222;SDS011;41090;48.632;12.428;2023-04-08T11:12:29;14.40;;;12.53;;
55222;SDS011;41090;48.632;12.428;2023-04-08T11:14:55;15.80;;;14.13;;
55222;SDS011;41090;48.632;12.428;2023-04-08T11:17:21;16.50;;;14.77;;
55222;SDS011;41090;48.632;12.428;2023-04-08T11:19:46;15.53;;;14.03;;
55222;SDS011;41090;48.632;12.428;2023-04-08T11:22:12;15.67;;;14.07;;
55222;SDS011;41090;48.632;12.428;2023-04-08T11:24:37;14.60;;;13.17;;
55222;SDS011;41090;48.632;12.428;2023-04-08T11:27:03;14.83;;;13.33;;
55222;SDS011;41090;48.632;12.428;2023-04-08T11:29:30;13.33;;;12.03;;
55222;SDS011;41090;48.632;12.428;2023-04-08T11:31:55;13.43;;;11.97;;
55222;SDS011;41090;48.632;12.428;2023-04-08T11:34:24;14.53;;;13.03;;
55222;SDS011;41090;48.632;12.428;2023-04-08T11:36:50;14.07;;;12.67;;
55222;SDS011;41090;48.632;12.428;2023-04-08T11:39:16;12.63;;;11.43;;
55222;SDS011;41090;48.632;12.428;2023-04-08T11:41:41;14.00;;;12.70;;
55222;SDS011;41090;48.632;12.428;2023-04-08T11:44:08;13.23;;;12.00;;
55222;SDS011;41090;48.632;12.428;2023-04-08T11:46:33;13.47;;;12.17;;
55222;SDS011;41090;48.632;12.428;2023-04-08T11:49:03;13.17;;;11.90;;
55222;SDS011;41090;48.632;12.428;2023-04-08T11:51:29;13.13;;;11.73;;
55222;SDS011;41090;48.632;12.428;2023-04-08T11:53:54;12.63;;;11.40;;
55222;SDS011;41090;48.632;12.428;2023-04-08T11:56:20;12.20;;;11.07;;
55222;SDS011;41090;48.632;12.428;2023-04-08T11:58:46;12.73;;;11.53;;
55222;SDS011;41090;48.632;12.428;2023-04-08T12:01:11;12.70;;;11.40;;
55222;SDS011;41090;48.632;12.428;2023-04-08T12:03:38;12.17;;;10.97;;
55222;SDS011;41090;48.632;12.428;2023-04-08T12:06:04;12.03;;;10.83;;
55222;SDS011;41090;48.632;12.428;2023-04-08T12:08:33;11.33;;;10.23;;
55222;SDS011;41090;48.632;12.428;2023-04-08T12:10:58;11.20;;;10.20;;
55222;SDS011;41090;48.632;12.428;2023-04-08T12:13:23;12.47;;;11.17;;
55222;SDS011;41090;48.632;12.428;2023-04-08T12:15:49;15.07;;;13.43;;
55222;SDS011;41090;48.632;12.428;2023-04-08T12:18:14;13.67;;;12.00;;
55222;SDS011;41090;48.632;12.428;2023-04-08T12:20:40;15.13;;;12.70;;
55222;SDS011;41090;48.632;12.428;2023-04-08T12:23:05;13.57;;;11.47;;
55222;SDS011;41090;48.632;12.428;2023-04-08T12:25:32;18.20;;;14.13;;
55222;SDS011;41090;48.632;12.428;2023-04-08T12:27:57;15.90;;;13.67;;
55222;SDS011;41090;48.632;12.428;2023-04-08T12:30:22;13.53;;;11.30;;
55222;SDS011;41090;48.632;12.428;2023-04-08T12:32:47;14.43;;;11.27;;
55222;SDS011;41090;48.632;12.428;2023-04-08T12:35:13;13.63;;;10.53;;
55222;SDS011;41090;48.632;12.428;2023-04-08T12:37:38;11.93;;;10.27;;
55222;SDS011;41090;48.632;12.428;2023-04-08T12:40:04;10.83;;;9.83;;
55222;SDS011;41090;48.632;12.428;2023-04-08T12:42:30;11.17;;;10.00;;
55222;SDS011;41090;48.632;12.428;2023-04-08T12:44:55;11.60;;;10.40;;
55222;SDS011;41090;48.632;12.428;2023-04-08T12:47:22;13.17;;;11.67;;
55222;SDS011;41090;48.632;12.428;2023-04-08T12:49:48;13.13;;;11.53;;
55222;SDS011;41090;48.632;12.428;2023-04-08T12:52:14;11.57;;;9.97;;
55222;SDS011;41090;48.632;12.428;2023-04-08T12:54:40;12.73;;;10.47;;
55222;SDS011;41090;48.632;12.428;2023-04-08T12:57:05;13.80;;;11.80;;
55222;SDS011;41090;48.632;12.428;2023-04-08T12:59:30;11.33;;;9.93;;
55222;SDS011;41090;48.632;12.428;2023-04-08T13:01:57;9.20;;;8.30;;
55222;SDS011;41090;48.632;12.428;2023-04-08T13:04:22;13.57;;;11.87;;
55222;SDS011;41090;48.632;12.428;2023-04-08T13:06:50;10.93;;;9.67;;
55222;SDS011;41090;48.632;12.428;2023-04-08T13:09:15;9.60;;;8.60;;
55222;SDS011;41090;48.632;12.428;2023-04-08T13:11:41;9.13;;;8.23;;
55222;SDS011;41090;48.632;12.428;2023-04-08T13:14:06;9.20;;;8.30;;
55222;SDS011;41090;48.632;12.428;2023-04-08T13:16:31;8.73;;;7.83;;
55222;SDS011;41090;48.632;12.428;2023-04-08T13:18:57;9.07;;;8.20;;
55222;SDS011;41090;48.632;12.428;2023-04-08T13:21:22;9.53;;;8.63;;
55222;SDS011;41090;48.632;12.428;2023-04-08T13:23:54;9.03;;;8.13;;
55222;SDS011;41090;48.632;12.428;2023-04-08T13:26:20;9.17;;;8.30;;
55222;SDS011;41090;48.632;12.428;2023-04-08T13:28:46;9.20;;;8.30;;
55222;SDS011;41090;48.632;12.428;2023-04-08T13:31:11;8.30;;;7.50;;
55222;SDS011;41090;48.632;12.428;2023-04-08T13:33:36;8.90;;;8.10;;
55222;SDS011;41090;48.632;12.428;2023-04-08T13:36:02;8.57;;;7.70;;
55222;SDS011;41090;48.632;12.428;2023-04-08T13:38:27;11.37;;;10.20;;
55222;SDS011;41090;48.632;12.428;2023-04-08T13:40:54;10.70;;;9.60;;
55222;SDS011;41090;48.632;12.428;2023-04-08T13:43:20;11.27;;;10.07;;
55222;SDS011;41090;48.632;12.428;2023-04-08T13:45:47;10.30;;;9.30;;
55222;SDS011;41090;48.632;12.428;2023-04-08T13:48:12;10.43;;;9.43;;
55222;SDS011;41090;48.632;12.428;2023-04-08T13:50:39;10.43;;;9.53;;
55222;SDS011;41090;48.632;12.428;2023-04-08T13:53:06;10.77;;;9.77;;
55222;SDS011;41090;48.632;12.428;2023-04-08T13:55:31;10.80;;;8.97;;
55222;SDS011;41090;48.632;12.428;2023-04-08T13:57:56;11.03;;;10.03;;
55222;SDS011;41090;48.632;12.428;2023-04-08T14:00:24;12.93;;;9.53;;
55222;SDS011;41090;48.632;12.428;2023-04-08T14:02:49;9.90;;;8.90;;
55222;SDS011;41090;48.632;12.428;2023-04-08T14:05:15;11.40;;;10.20;;
55222;SDS011;41090;48.632;12.428;2023-04-08T14:07:42;10.60;;;9.50;;
55222;SDS011;41090;48.632;12.428;2023-04-08T14:10:09;9.53;;;8.63;;
55222;SDS011;41090;48.632;12.428;2023-04-08T14:12:34;10.73;;;9.63;;
55222;SDS011;41090;48.632;12.428;2023-04-08T14:15:00;9.37;;;8.57;;
55222;SDS011;41090;48.632;12.428;2023-04-08T14:17:26;9.80;;;8.90;;
55222;SDS011;41090;48.632;12.428;2023-04-08T14:19:52;9.67;;;8.63;;
55222;SDS011;41090;48.632;12.428;2023-04-08T14:22:17;10.10;;;9.17;;
55222;SDS011;41090;48.632;12.428;2023-04-08T14:24:43;10.87;;;9.80;;
55222;SDS011;41090;48.632;12.428;2023-04-08T14:27:08;11.53;;;10.43;;
55222;SDS011;41090;48.632;12.428;2023-04-08T14:29:33;11.67;;;10.57;;
55222;SDS011;41090;48.632;12.428;2023-04-08T14:31:58;11.70;;;10.60;;
55222;SDS011;41090;48.632;12.428;2023-04-08T14:34:24;10.60;;;9.67;;